Time;durP1;ratioP1;P1;durP2;ratioP2;P2;SDS_P1;SDS_P2;PMS_P1;PMS_P2;Temp;Humidity;BMP_temperature;BMP_pressure;BME280_temperature;BME280_humidity;BME280_pressure;Samples;Min_cycle;Max_cycle;Signal;HPM_P1;HPM_P2
2021/11/26 00:00:57;;;;;;;36.37;21.83;;;;;;;;;;2084609;28;20184;-60
2021/11/26 00:01:58;;;;;;;45.27;24.37;;;;;;;;;;2085469;28;20684;-60
2021/11/26 00:02:58;;;;;;;40.57;22.07;;;;;;;;;;2085382;28;20183;-58
2021/11/26 00:04:00;;;;;;;42.93;22.37;;;;;;;;;;2076930;28;20172;-58
2021/11/26 00:05:02;;;;;;;36.40;22.73;;;;;;;;;;2083637;28;20224;-60
2021/11/26 00:06:03;;;;;;;39.77;23.53;;;;;;;;;;2085852;28;20169;-60
2021/11/26 00:07:03;;;;;;;41.53;22.77;;;;;;;;;;2092454;28;20790;-60
2021/11/26 00:08:04;;;;;;;38.80;22.47;;;;;;;;;;2086364;28;20706;-61
2021/11/26 00:09:04;;;;;;;39.70;23.27;;;;;;;;;;2092298;28;20171;-61
2021/11/26 00:10:05;;;;;;;41.43;23.33;;;;;;;;;;2087434;28;20255;-61
2021/11/26 00:11:05;;;;;;;43.10;23.20;;;;;;;;;;2086918;28;20180;-61
2021/11/26 00:12:06;;;;;;;41.57;22.83;;;;;;;;;;2091034;28;20199;-61
2021/11/26 00:13:09;;;;;;;36.30;20.57;;;;;;;;;;2087350;28;20177;-60
2021/11/26 00:14:19;;;;;;;36.30;20.93;;;;;;;;;;2087603;28;20191;-62
2021/11/26 00:16:21;;;;;;;37.17;22.23;;;;;;;;;;2089987;28;20172;-60
2021/11/26 00:17:21;;;;;;;34.37;20.93;;;;;;;;;;2089917;28;20270;-62
2021/11/26 00:18:22;;;;;;;30.97;20.80;;;;;;;;;;2086819;28;20287;-59
2021/11/26 00:19:23;;;;;;;36.33;21.00;;;;;;;;;;2090900;28;20172;-62
2021/11/26 00:20:23;;;;;;;40.53;21.97;;;;;;;;;;2087676;28;20164;-59
2021/11/26 00:21:23;;;;;;;36.00;19.87;;;;;;;;;;2085318;28;20797;-61
2021/11/26 00:22:24;;;;;;;41.50;22.17;;;;;;;;;;2085897;28;20541;-60
2021/11/26 00:23:24;;;;;;;41.43;22.37;;;;;;;;;;2084862;28;20191;-60
2021/11/26 00:24:25;;;;;;;36.40;22.10;;;;;;;;;;2085158;28;20168;-59
2021/11/26 00:25:25;;;;;;;32.17;19.23;;;;;;;;;;2086323;28;20207;-59
2021/11/26 00:26:26;;;;;;;36.63;21.90;;;;;;;;;;2093264;28;20194;-59
2021/11/26 00:27:26;;;;;;;35.40;20.30;;;;;;;;;;2091615;28;20214;-59
2021/11/26 00:28:26;;;;;;;40.00;19.97;;;;;;;;;;2089042;28;20648;-62
2021/11/26 00:29:27;;;;;;;35.10;21.27;;;;;;;;;;2082887;28;20184;-61
2021/11/26 00:30:27;;;;;;;37.23;21.77;;;;;;;;;;2083845;28;20168;-60
2021/11/26 00:31:28;;;;;;;36.27;21.13;;;;;;;;;;2084907;28;20180;-59
2021/11/26 00:32:28;;;;;;;34.40;20.77;;;;;;;;;;2085625;28;20222;-63
2021/11/26 00:33:29;;;;;;;47.03;24.90;;;;;;;;;;2085496;28;20544;-60
2021/11/26 00:34:29;;;;;;;39.13;22.37;;;;;;;;;;2092674;28;20218;-60
2021/11/26 00:35:30;;;;;;;40.93;22.50;;;;;;;;;;2093389;28;20172;-61
2021/11/26 00:36:30;;;;;;;42.17;20.93;;;;;;;;;;2086275;28;20173;-60
2021/11/26 00:37:31;;;;;;;36.87;21.23;;;;;;;;;;2085867;28;20801;-61
2021/11/26 00:38:31;;;;;;;37.13;21.50;;;;;;;;;;2086781;28;20606;-61
2021/11/26 00:39:32;;;;;;;33.13;19.00;;;;;;;;;;2086635;28;20652;-61
2021/11/26 00:40:32;;;;;;;38.60;20.07;;;;;;;;;;2096293;28;20175;-61
2021/11/26 00:41:33;;;;;;;41.10;21.00;;;;;;;;;;2094614;28;20160;-60
2021/11/26 00:42:33;;;;;;;37.37;21.33;;;;;;;;;;2090156;28;20190;-61
2021/11/26 00:43:33;;;;;;;36.43;19.87;;;;;;;;;;2087378;28;20197;-62
2021/11/26 00:44:34;;;;;;;35.63;20.93;;;;;;;;;;2091837;28;20166;-60
2021/11/26 00:45:34;;;;;;;37.03;20.67;;;;;;;;;;2093411;28;20203;-62
2021/11/26 00:46:34;;;;;;;36.23;20.60;;;;;;;;;;2087095;28;20164;-61
2021/11/26 00:47:35;;;;;;;40.80;21.93;;;;;;;;;;2088059;28;20271;-61
2021/11/26 00:48:35;;;;;;;38.67;21.33;;;;;;;;;;2085873;28;20566;-59
2021/11/26 00:49:35;;;;;;;40.07;22.27;;;;;;;;;;2093991;28;20180;-59
2021/11/26 00:50:36;;;;;;;36.93;21.23;;;;;;;;;;2100348;28;20179;-60
2021/11/26 00:51:37;;;;;;;36.90;21.30;;;;;;;;;;2091179;28;20271;-61
2021/11/26 00:52:37;;;;;;;33.00;20.37;;;;;;;;;;2086734;28;20184;-58
2021/11/26 00:53:37;;;;;;;40.77;22.07;;;;;;;;;;2086399;28;20199;-60
2021/11/26 00:54:38;;;;;;;35.83;21.53;;;;;;;;;;2093481;28;20205;-61
2021/11/26 00:55:39;;;;;;;40.53;22.07;;;;;;;;;;2094490;28;20195;-58
2021/11/26 00:56:40;;;;;;;39.03;21.10;;;;;;;;;;2093865;28;20172;-59
2021/11/26 00:57:40;;;;;;;35.27;21.07;;;;;;;;;;2093440;28;20639;-61
2021/11/26 00:58:41;;;;;;;38.00;21.60;;;;;;;;;;2081770;28;20167;-61
2021/11/26 00:59:41;;;;;;;40.20;21.97;;;;;;;;;;2086565;28;20176;-61
2021/11/26 01:00:41;;;;;;;35.40;20.00;;;;;;;;;;2086057;28;20200;-61
2021/11/26 01:01:42;;;;;;;39.03;21.03;;;;;;;;;;2086592;28;20635;-59
2021/11/26 01:02:43;;;;;;;40.93;20.87;;;;;;;;;;2085746;28;20188;-61
2021/11/26 01:03:43;;;;;;;43.03;22.10;;;;;;;;;;2086394;28;20234;-60
2021/11/26 01:04:44;;;;;;;36.27;20.73;;;;;;;;;;2094162;28;20242;-60
2021/11/26 01:05:44;;;;;;;39.27;21.73;;;;;;;;;;2093280;28;20253;-59
2021/11/26 01:06:44;;;;;;;39.30;19.97;;;;;;;;;;2092240;28;20179;-59
2021/11/26 01:07:45;;;;;;;34.37;21.73;;;;;;;;;;2085889;28;20275;-61
2021/11/26 01:08:45;;;;;;;35.60;19.57;;;;;;;;;;2085607;28;20298;-62
2021/11/26 01:09:46;;;;;;;44.53;22.07;;;;;;;;;;2085785;28;20187;-61
2021/11/26 01:10:47;;;;;;;29.63;18.60;;;;;;;;;;2083159;28;20234;-58
2021/11/26 01:11:48;;;;;;;37.73;19.90;;;;;;;;;;2081798;28;20176;-59
2021/11/26 01:12:49;;;;;;;36.00;20.23;;;;;;;;;;2082991;28;20173;-60
2021/11/26 01:13:49;;;;;;;29.37;19.17;;;;;;;;;;2083303;28;20218;-60
2021/11/26 01:14:49;;;;;;;35.43;18.77;;;;;;;;;;2083086;28;20222;-60
2021/11/26 01:15:51;;;;;;;41.20;19.80;;;;;;;;;;2083541;28;20176;-58
2021/11/26 01:16:52;;;;;;;33.20;19.37;;;;;;;;;;2087724;28;20171;-60
2021/11/26 01:17:53;;;;;;;32.83;18.60;;;;;;;;;;2091633;28;20691;-61
2021/11/26 01:18:53;;;;;;;35.23;20.00;;;;;;;;;;2081964;28;20180;-58
2021/11/26 01:19:53;;;;;;;31.43;18.47;;;;;;;;;;2082582;28;20219;-62
2021/11/26 01:20:54;;;;;;;29.00;19.27;;;;;;;;;;2081848;28;20176;-60
2021/11/26 01:21:54;;;;;;;32.93;18.63;;;;;;;;;;2089958;28;20176;-58
2021/11/26 01:22:55;;;;;;;32.23;18.80;;;;;;;;;;2083934;28;20165;-57
2021/11/26 01:23:55;;;;;;;32.17;20.03;;;;;;;;;;2081282;28;20183;-58
2021/11/26 01:24:55;;;;;;;35.77;18.50;;;;;;;;;;2082125;28;20169;-59
2021/11/26 01:25:56;;;;;;;34.33;19.30;;;;;;;;;;2082320;28;20183;-61
2021/11/26 01:26:56;;;;;;;35.20;19.50;;;;;;;;;;2082137;28;20204;-61
2021/11/26 01:27:57;;;;;;;32.70;18.93;;;;;;;;;;2081624;28;20668;-57
2021/11/26 01:28:57;;;;;;;32.10;18.53;;;;;;;;;;2082243;28;20180;-59
2021/11/26 01:29:57;;;;;;;29.53;19.40;;;;;;;;;;2081834;28;20195;-57
2021/11/26 01:30:58;;;;;;;34.80;18.93;;;;;;;;;;2082076;28;20247;-58
2021/11/26 01:31:58;;;;;;;33.67;20.37;;;;;;;;;;2092738;28;20213;-60
2021/11/26 01:33:00;;;;;;;30.27;18.53;;;;;;;;;;2091511;28;20168;-57
2021/11/26 01:34:02;;;;;;;30.83;19.93;;;;;;;;;;2085929;28;20268;-57
2021/11/26 01:35:03;;;;;;;30.60;18.87;;;;;;;;;;2082632;28;20180;-58
2021/11/26 01:36:03;;;;;;;31.47;19.60;;;;;;;;;;2082188;28;20666;-61
2021/11/26 01:37:04;;;;;;;33.20;20.70;;;;;;;;;;2082942;28;20528;-60
2021/11/26 01:38:05;;;;;;;34.47;20.17;;;;;;;;;;2089770;28;20160;-60
2021/11/26 01:39:06;;;;;;;36.97;20.23;;;;;;;;;;2090431;28;20168;-60
2021/11/26 01:40:06;;;;;;;32.53;18.90;;;;;;;;;;2081585;28;20684;-60
2021/11/26 01:41:09;;;;;;;31.33;18.47;;;;;;;;;;2089416;28;20687;-57
2021/11/26 01:42:09;;;;;;;34.27;19.43;;;;;;;;;;2082677;28;20691;-59
2021/11/26 01:43:12;;;;;;;37.93;20.10;;;;;;;;;;2082530;28;20263;-60
2021/11/26 01:44:13;;;;;;;39.40;19.53;;;;;;;;;;2082093;28;20180;-61
2021/11/26 01:45:14;;;;;;;36.93;20.43;;;;;;;;;;2089192;28;20172;-62
2021/11/26 01:46:14;;;;;;;30.77;19.73;;;;;;;;;;2081702;28;20172;-55
2021/11/26 01:47:15;;;;;;;31.00;18.57;;;;;;;;;;2081068;28;20200;-61
2021/11/26 01:48:16;;;;;;;33.50;18.70;;;;;;;;;;2082352;28;20710;-60
2021/11/26 01:49:17;;;;;;;35.17;19.37;;;;;;;;;;2075080;28;20260;-60
2021/11/26 01:50:18;;;;;;;30.97;19.07;;;;;;;;;;2090257;28;20647;-58
2021/11/26 01:51:18;;;;;;;30.33;19.50;;;;;;;;;;2081197;28;20171;-56
2021/11/26 01:52:18;;;;;;;36.73;20.77;;;;;;;;;;2091860;28;20588;-58
2021/11/26 01:53:19;;;;;;;36.20;20.70;;;;;;;;;;2088863;28;20186;-59
2021/11/26 01:54:19;;;;;;;36.73;20.23;;;;;;;;;;2080770;28;20207;-60
2021/11/26 01:55:20;;;;;;;33.30;19.50;;;;;;;;;;2080506;28;20180;-61
2021/11/26 01:56:20;;;;;;;37.17;20.70;;;;;;;;;;2080849;28;20547;-58
2021/11/26 01:57:20;;;;;;;35.83;20.30;;;;;;;;;;2080931;28;20294;-57
2021/11/26 01:58:21;;;;;;;35.87;19.70;;;;;;;;;;2081827;28;20184;-57
2021/11/26 01:59:21;;;;;;;32.10;20.20;;;;;;;;;;2088885;28;20377;-60
2021/11/26 02:00:24;;;;;;;33.63;20.77;;;;;;;;;;2089674;28;20194;-61
2021/11/26 02:01:24;;;;;;;32.77;19.67;;;;;;;;;;2081241;28;20215;-62
2021/11/26 02:02:25;;;;;;;27.93;19.13;;;;;;;;;;2081607;28;20554;-59
2021/11/26 02:03:25;;;;;;;30.10;19.33;;;;;;;;;;2082103;28;20176;-59
2021/11/26 02:04:26;;;;;;;34.27;19.63;;;;;;;;;;2087750;28;20758;-58
2021/11/26 02:05:26;;;;;;;31.37;19.07;;;;;;;;;;2089044;28;20203;-60
2021/11/26 02:06:27;;;;;;;38.60;20.37;;;;;;;;;;2087371;28;20181;-59
2021/11/26 02:07:27;;;;;;;30.83;20.83;;;;;;;;;;2080922;28;20279;-60
2021/11/26 02:08:27;;;;;;;36.03;20.90;;;;;;;;;;2084153;28;20251;-58
2021/11/26 02:09:28;;;;;;;38.47;19.90;;;;;;;;;;2082787;28;20258;-57
2021/11/26 02:10:28;;;;;;;38.23;21.67;;;;;;;;;;2088899;28;20223;-59
2021/11/26 02:11:29;;;;;;;36.63;20.87;;;;;;;;;;2089348;28;20168;-57
2021/11/26 02:12:30;;;;;;;36.23;19.00;;;;;;;;;;2090206;28;20585;-59
2021/11/26 02:13:31;;;;;;;39.47;20.40;;;;;;;;;;2084176;28;20176;-58
2021/11/26 02:14:31;;;;;;;37.47;21.07;;;;;;;;;;2089428;28;20663;-56
2021/11/26 02:15:31;;;;;;;39.60;21.60;;;;;;;;;;2089646;28;20171;-58
2021/11/26 02:16:42;;;;;;;38.10;20.27;;;;;;;;;;2084218;28;20222;-59
2021/11/26 02:17:42;;;;;;;33.50;20.70;;;;;;;;;;2085949;28;20718;-57
2021/11/26 02:18:45;;;;;;;37.33;21.43;;;;;;;;;;2082605;28;20178;-56
2021/11/26 02:19:46;;;;;;;41.00;20.90;;;;;;;;;;2086107;28;20207;-57
2021/11/26 02:20:46;;;;;;;34.10;21.73;;;;;;;;;;2085481;28;20176;-57
2021/11/26 02:21:47;;;;;;;39.07;20.33;;;;;;;;;;2082479;28;20309;-58
2021/11/26 02:22:48;;;;;;;34.67;21.40;;;;;;;;;;2081225;28;20222;-60
2021/11/26 02:23:48;;;;;;;38.67;20.00;;;;;;;;;;2088950;28;20207;-58
2021/11/26 02:24:49;;;;;;;39.73;20.83;;;;;;;;;;2088641;28;20585;-57
2021/11/26 02:25:49;;;;;;;39.83;20.63;;;;;;;;;;2081715;28;20218;-58
2021/11/26 02:26:50;;;;;;;35.87;22.30;;;;;;;;;;2081125;28;20180;-59
2021/11/26 02:27:51;;;;;;;36.97;21.47;;;;;;;;;;2080559;28;20192;-60
2021/11/26 02:28:52;;;;;;;40.50;21.00;;;;;;;;;;2084049;28;20191;-58
2021/11/26 02:29:55;;;;;;;36.60;21.80;;;;;;;;;;2083492;28;20259;-59
2021/11/26 02:30:55;;;;;;;33.83;21.07;;;;;;;;;;2089542;28;20203;-57
2021/11/26 02:31:56;;;;;;;37.00;22.17;;;;;;;;;;2088844;28;20206;-57
2021/11/26 02:32:58;;;;;;;36.73;21.30;;;;;;;;;;2081357;28;20256;-59
2021/11/26 02:33:58;;;;;;;43.37;22.33;;;;;;;;;;2082255;28;20191;-62
2021/11/26 02:34:59;;;;;;;44.40;21.93;;;;;;;;;;2081464;28;20196;-59
2021/11/26 02:35:59;;;;;;;39.73;21.30;;;;;;;;;;2094426;28;20175;-58
2021/11/26 02:36:59;;;;;;;36.23;21.47;;;;;;;;;;2082192;28;20161;-57
2021/11/26 02:38:00;;;;;;;37.07;22.17;;;;;;;;;;2081122;28;20172;-60
2021/11/26 02:39:01;;;;;;;39.93;22.20;;;;;;;;;;2090089;28;20180;-60
2021/11/26 02:40:02;;;;;;;40.83;23.17;;;;;;;;;;2095402;28;20522;-58
2021/11/26 02:41:03;;;;;;;39.50;21.90;;;;;;;;;;2082528;28;20177;-58
2021/11/26 02:42:03;;;;;;;39.47;22.30;;;;;;;;;;2081422;28;20184;-57
2021/11/26 02:43:03;;;;;;;43.83;23.60;;;;;;;;;;2088084;28;20229;-58
2021/11/26 02:44:04;;;;;;;38.57;21.43;;;;;;;;;;2090143;28;20183;-58
2021/11/26 02:45:06;;;;;;;37.40;22.77;;;;;;;;;;2083726;28;20260;-57
2021/11/26 02:46:06;;;;;;;38.30;21.30;;;;;;;;;;2083551;28;20172;-57
2021/11/26 02:47:07;;;;;;;40.70;23.00;;;;;;;;;;2083374;28;20172;-58
2021/11/26 02:48:07;;;;;;;40.80;21.60;;;;;;;;;;2083002;28;20637;-59
2021/11/26 02:49:08;;;;;;;45.53;22.47;;;;;;;;;;2083197;28;20168;-56
2021/11/26 02:50:10;;;;;;;41.63;23.13;;;;;;;;;;2082248;28;20189;-58
2021/11/26 02:51:10;;;;;;;46.73;23.70;;;;;;;;;;2090505;28;20186;-60
2021/11/26 02:52:11;;;;;;;41.03;23.13;;;;;;;;;;2091225;28;20222;-59
2021/11/26 02:53:11;;;;;;;42.37;22.87;;;;;;;;;;2083429;28;20645;-57
2021/11/26 02:54:12;;;;;;;42.80;23.33;;;;;;;;;;2083783;28;20259;-57
2021/11/26 02:55:14;;;;;;;44.23;23.10;;;;;;;;;;2083466;28;20183;-56
2021/11/26 02:56:14;;;;;;;44.50;23.43;;;;;;;;;;2083850;28;20168;-57
2021/11/26 02:57:14;;;;;;;36.50;22.47;;;;;;;;;;2082679;28;20192;-57
2021/11/26 02:58:15;;;;;;;46.50;24.13;;;;;;;;;;2082807;28;20203;-59
2021/11/26 02:59:15;;;;;;;43.43;23.53;;;;;;;;;;2082672;28;20214;-56
2021/11/26 03:00:18;;;;;;;40.37;23.10;;;;;;;;;;2089824;28;20830;-54
2021/11/26 03:01:18;;;;;;;44.73;23.93;;;;;;;;;;2089618;28;20262;-59
2021/11/26 03:02:18;;;;;;;43.97;24.67;;;;;;;;;;2089640;28;20191;-54
2021/11/26 03:03:19;;;;;;;46.50;24.40;;;;;;;;;;2090085;28;20446;-58
2021/11/26 03:04:19;;;;;;;45.53;23.77;;;;;;;;;;2082083;28;20261;-60
2021/11/26 03:05:20;;;;;;;39.17;23.87;;;;;;;;;;2086881;28;20221;-59
2021/11/26 03:06:20;;;;;;;43.90;24.83;;;;;;;;;;2086544;28;20234;-58
2021/11/26 03:07:21;;;;;;;47.57;26.03;;;;;;;;;;2072453;28;20281;-57
2021/11/26 03:08:21;;;;;;;44.80;23.97;;;;;;;;;;2074259;28;20169;-57
2021/11/26 03:09:22;;;;;;;37.93;21.87;;;;;;;;;;2080600;28;20168;-58
2021/11/26 03:10:23;;;;;;;49.13;25.00;;;;;;;;;;2081093;28;20184;-59
2021/11/26 03:11:23;;;;;;;52.13;25.83;;;;;;;;;;2082243;28;20275;-59
2021/11/26 03:12:23;;;;;;;46.70;23.87;;;;;;;;;;2087023;28;20172;-55
2021/11/26 03:13:24;;;;;;;48.07;23.90;;;;;;;;;;2088971;28;20180;-59
2021/11/26 03:14:25;;;;;;;48.00;24.77;;;;;;;;;;2089509;28;20171;-62
2021/11/26 03:15:25;;;;;;;41.97;24.47;;;;;;;;;;2083863;28;20184;-58
2021/11/26 03:16:26;;;;;;;47.27;25.03;;;;;;;;;;2081102;28;20204;-58
2021/11/26 03:17:26;;;;;;;45.70;24.93;;;;;;;;;;2083463;28;20239;-58
2021/11/26 03:19:31;;;;;;;48.93;25.47;;;;;;;;;;2058987;28;20219;-63
2021/11/26 03:20:31;;;;;;;44.73;24.90;;;;;;;;;;2061804;28;20182;-63
2021/11/26 03:21:32;;;;;;;46.73;24.80;;;;;;;;;;2062941;28;20178;-65
2021/11/26 03:22:32;;;;;;;49.50;24.97;;;;;;;;;;2065792;28;20178;-63
2021/11/26 03:23:33;;;;;;;42.87;23.57;;;;;;;;;;2066108;28;20189;-62
2021/11/26 03:24:33;;;;;;;49.23;24.70;;;;;;;;;;2065957;28;20169;-62
2021/11/26 03:25:33;;;;;;;48.97;23.70;;;;;;;;;;2072434;28;20561;-63
2021/11/26 03:26:34;;;;;;;43.60;25.07;;;;;;;;;;2074094;28;20638;-63
2021/11/26 03:27:34;;;;;;;45.50;24.70;;;;;;;;;;2065333;28;20165;-62
2021/11/26 03:28:34;;;;;;;43.43;24.80;;;;;;;;;;2061068;28;20210;-62
2021/11/26 03:29:35;;;;;;;45.27;24.90;;;;;;;;;;2066250;28;20181;-62
2021/11/26 03:30:35;;;;;;;43.03;25.17;;;;;;;;;;2065921;28;20190;-63
2021/11/26 03:31:36;;;;;;;44.30;25.33;;;;;;;;;;2065560;28;20182;-63
2021/11/26 03:32:37;;;;;;;42.40;24.17;;;;;;;;;;2064736;28;20185;-64
2021/11/26 03:33:37;;;;;;;43.37;24.37;;;;;;;;;;2069915;28;20173;-67
2021/11/26 03:34:37;;;;;;;48.97;25.90;;;;;;;;;;2065338;28;20186;-62
2021/11/26 03:35:38;;;;;;;53.87;25.40;;;;;;;;;;2072962;28;20223;-63
2021/11/26 03:36:38;;;;;;;50.33;25.60;;;;;;;;;;2066169;28;20201;-62
2021/11/26 03:37:39;;;;;;;46.43;25.40;;;;;;;;;;2067800;28;20181;-64
2021/11/26 03:38:39;;;;;;;52.83;26.87;;;;;;;;;;2065019;28;20800;-63
2021/11/26 03:39:39;;;;;;;53.20;26.37;;;;;;;;;;2072991;28;20195;-61
2021/11/26 03:40:40;;;;;;;50.83;27.60;;;;;;;;;;2074033;28;20192;-63
2021/11/26 03:41:40;;;;;;;50.13;25.17;;;;;;;;;;2065449;28;20185;-63
2021/11/26 03:42:40;;;;;;;44.77;25.07;;;;;;;;;;2065381;28;20268;-63
2021/11/26 03:43:41;;;;;;;50.53;26.13;;;;;;;;;;2065233;28;20186;-63
2021/11/26 03:44:41;;;;;;;44.10;25.57;;;;;;;;;;2066891;28;20205;-63
2021/11/26 03:45:41;;;;;;;45.93;25.97;;;;;;;;;;2065095;28;20697;-63
2021/11/26 03:46:42;;;;;;;48.23;25.63;;;;;;;;;;2066693;28;20247;-63
2021/11/26 03:47:42;;;;;;;52.67;26.87;;;;;;;;;;2063955;28;20277;-63
2021/11/26 03:48:43;;;;;;;48.63;27.10;;;;;;;;;;2066300;28;20228;-62
2021/11/26 03:49:43;;;;;;;57.40;26.03;;;;;;;;;;2065004;28;20205;-63
2021/11/26 03:50:44;;;;;;;44.50;24.67;;;;;;;;;;2066712;28;20197;-61
2021/11/26 03:51:44;;;;;;;47.97;25.57;;;;;;;;;;2066082;28;20541;-63
2021/11/26 03:52:44;;;;;;;43.50;23.63;;;;;;;;;;2065655;28;20165;-63
2021/11/26 03:53:45;;;;;;;43.03;24.73;;;;;;;;;;2067996;28;20237;-62
2021/11/26 03:54:45;;;;;;;46.93;25.63;;;;;;;;;;2063537;28;20181;-63
2021/11/26 03:55:45;;;;;;;52.87;26.83;;;;;;;;;;2065469;28;20180;-63
2021/11/26 03:56:46;;;;;;;45.63;24.73;;;;;;;;;;2064456;28;20193;-62
2021/11/26 03:57:46;;;;;;;43.87;26.30;;;;;;;;;;2069062;28;20182;-63
2021/11/26 03:58:46;;;;;;;47.07;26.93;;;;;;;;;;2066355;28;20170;-62
2021/11/26 03:59:47;;;;;;;49.83;25.87;;;;;;;;;;2064512;28;20693;-62
2021/11/26 04:00:47;;;;;;;48.13;26.63;;;;;;;;;;2063938;28;20181;-63
2021/11/26 04:01:47;;;;;;;55.37;26.57;;;;;;;;;;2069286;28;20173;-63
2021/11/26 04:02:48;;;;;;;49.83;25.60;;;;;;;;;;2066024;28;20268;-63
2021/11/26 04:03:48;;;;;;;47.70;26.63;;;;;;;;;;2066682;28;20212;-64
2021/11/26 04:04:48;;;;;;;50.67;27.00;;;;;;;;;;2064817;28;20198;-63
2021/11/26 04:05:49;;;;;;;50.47;26.60;;;;;;;;;;2069358;28;20291;-63
2021/11/26 04:06:49;;;;;;;45.40;26.30;;;;;;;;;;2066639;28;20177;-63
2021/11/26 04:07:50;;;;;;;46.13;25.83;;;;;;;;;;2062721;28;20217;-63
2021/11/26 04:08:50;;;;;;;48.47;24.37;;;;;;;;;;2064641;28;20194;-63
2021/11/26 04:09:50;;;;;;;47.70;24.87;;;;;;;;;;2074299;28;20169;-64
2021/11/26 04:10:51;;;;;;;46.87;23.67;;;;;;;;;;2066184;28;20556;-63
2021/11/26 04:11:51;;;;;;;46.33;24.30;;;;;;;;;;2069372;28;20174;-64
2021/11/26 04:12:52;;;;;;;46.83;25.93;;;;;;;;;;2066810;28;20217;-62
2021/11/26 04:13:53;;;;;;;46.50;26.00;;;;;;;;;;2064213;28;20622;-65
2021/11/26 04:14:54;;;;;;;46.77;25.20;;;;;;;;;;2063782;28;20193;-62
2021/11/26 04:16:01;;;;;;;40.97;26.23;;;;;;;;;;2073937;28;20181;-63
2021/11/26 04:17:04;;;;;;;49.43;25.67;;;;;;;;;;2069018;28;20185;-65
2021/11/26 04:18:05;;;;;;;44.33;25.23;;;;;;;;;;2066718;28;20174;-63
2021/11/26 04:19:05;;;;;;;44.97;25.00;;;;;;;;;;2067906;28;20213;-64
2021/11/26 04:20:07;;;;;;;45.43;25.63;;;;;;;;;;2066422;28;20186;-63
2021/11/26 04:21:08;;;;;;;45.87;25.37;;;;;;;;;;2065075;28;20184;-64
2021/11/26 04:22:08;;;;;;;44.30;26.50;;;;;;;;;;2066925;28;20177;-62
2021/11/26 04:23:09;;;;;;;45.97;24.90;;;;;;;;;;2064911;28;20188;-66
2021/11/26 04:24:10;;;;;;;46.33;24.83;;;;;;;;;;2066620;28;20182;-62
2021/11/26 04:25:12;;;;;;;41.83;24.30;;;;;;;;;;2069449;28;20263;-63
2021/11/26 04:26:12;;;;;;;47.47;25.77;;;;;;;;;;2061458;28;20182;-62
2021/11/26 04:27:12;;;;;;;46.07;24.97;;;;;;;;;;2069685;28;20212;-61
2021/11/26 04:28:13;;;;;;;43.67;25.23;;;;;;;;;;2065152;28;20177;-64
2021/11/26 04:29:13;;;;;;;41.37;24.97;;;;;;;;;;2065408;28;20700;-64
2021/11/26 04:30:14;;;;;;;49.83;26.27;;;;;;;;;;2059727;28;20178;-64
2021/11/26 04:31:14;;;;;;;45.07;24.97;;;;;;;;;;2065579;28;20266;-63
2021/11/26 04:32:15;;;;;;;44.17;24.10;;;;;;;;;;2059447;28;20185;-63
2021/11/26 04:33:15;;;;;;;45.00;26.03;;;;;;;;;;2069266;28;20169;-64
2021/11/26 04:34:16;;;;;;;49.20;25.27;;;;;;;;;;2057861;28;20663;-61
2021/11/26 04:35:16;;;;;;;44.97;24.23;;;;;;;;;;2057654;28;20170;-64
2021/11/26 04:36:17;;;;;;;42.27;23.97;;;;;;;;;;2065984;28;20241;-63
2021/11/26 04:37:17;;;;;;;44.50;25.63;;;;;;;;;;2065588;28;20682;-63
2021/11/26 04:38:18;;;;;;;47.70;27.17;;;;;;;;;;2066407;28;20176;-63
2021/11/26 04:39:18;;;;;;;41.90;25.07;;;;;;;;;;2064698;28;20309;-64
2021/11/26 04:40:19;;;;;;;41.27;24.13;;;;;;;;;;2066489;28;20252;-63
2021/11/26 04:41:19;;;;;;;42.60;24.33;;;;;;;;;;2064735;28;20762;-63
2021/11/26 04:42:19;;;;;;;47.80;25.30;;;;;;;;;;2066387;28;20200;-64
2021/11/26 04:43:20;;;;;;;42.33;24.67;;;;;;;;;;2063817;28;20174;-64
2021/11/26 04:44:21;;;;;;;41.77;25.13;;;;;;;;;;2066684;28;20170;-64
2021/11/26 04:45:21;;;;;;;48.50;26.70;;;;;;;;;;2064089;28;20198;-60
2021/11/26 04:46:21;;;;;;;45.87;24.47;;;;;;;;;;2060622;28;20178;-62
2021/11/26 04:47:22;;;;;;;43.43;25.00;;;;;;;;;;2063997;28;20265;-62
2021/11/26 04:48:24;;;;;;;47.07;25.67;;;;;;;;;;2065470;28;20169;-64
2021/11/26 04:49:24;;;;;;;43.53;24.77;;;;;;;;;;2062073;28;20206;-62
2021/11/26 04:50:24;;;;;;;44.00;26.63;;;;;;;;;;2065005;28;20177;-63
2021/11/26 04:51:24;;;;;;;53.77;27.63;;;;;;;;;;2068515;28;20169;-64
2021/11/26 04:52:25;;;;;;;49.47;26.37;;;;;;;;;;2066424;28;20642;-62
2021/11/26 04:53:25;;;;;;;46.80;26.60;;;;;;;;;;2068479;28;20646;-63
2021/11/26 04:54:26;;;;;;;50.57;28.03;;;;;;;;;;2066330;28;20209;-62
2021/11/26 04:55:26;;;;;;;45.30;26.53;;;;;;;;;;2066577;28;20181;-64
2021/11/26 04:56:26;;;;;;;49.53;27.33;;;;;;;;;;2065121;28;20212;-62
2021/11/26 04:57:27;;;;;;;46.60;26.83;;;;;;;;;;2067119;28;20184;-63
2021/11/26 04:58:32;;;;;;;47.17;26.43;;;;;;;;;;2065301;28;20169;-63
2021/11/26 04:59:32;;;;;;;58.03;28.57;;;;;;;;;;2066904;28;20250;-63
2021/11/26 05:00:33;;;;;;;49.67;26.73;;;;;;;;;;2064775;28;20178;-63
2021/11/26 05:01:33;;;;;;;46.33;25.60;;;;;;;;;;2068501;28;20193;-60
2021/11/26 05:02:33;;;;;;;46.87;25.70;;;;;;;;;;2063879;28;20231;-63
2021/11/26 05:03:34;;;;;;;43.37;26.07;;;;;;;;;;2068060;28;20286;-64
2021/11/26 05:04:34;;;;;;;46.90;27.20;;;;;;;;;;2063525;28;20173;-63
2021/11/26 05:05:34;;;;;;;48.13;27.33;;;;;;;;;;2066941;28;20201;-63
2021/11/26 05:06:36;;;;;;;48.37;25.77;;;;;;;;;;2062188;28;20250;-62
2021/11/26 05:07:36;;;;;;;56.17;26.77;;;;;;;;;;2061664;28;20205;-62
2021/11/26 05:08:37;;;;;;;46.03;25.93;;;;;;;;;;2065798;28;20193;-62
2021/11/26 05:09:37;;;;;;;48.97;26.53;;;;;;;;;;2065842;28;20180;-63
2021/11/26 05:10:37;;;;;;;55.10;27.97;;;;;;;;;;2064830;28;20169;-63
2021/11/26 05:11:38;;;;;;;53.37;26.67;;;;;;;;;;2066773;28;20213;-63
2021/11/26 05:12:47;;;;;;;51.40;26.97;;;;;;;;;;2058250;28;20210;-63
2021/11/26 05:13:47;;;;;;;47.17;27.80;;;;;;;;;;2063245;28;20429;-63
2021/11/26 05:14:48;;;;;;;47.10;26.33;;;;;;;;;;2065634;28;20166;-63
2021/11/26 05:15:48;;;;;;;46.77;26.00;;;;;;;;;;2074484;28;20175;-63
2021/11/26 05:16:48;;;;;;;46.63;25.20;;;;;;;;;;2061382;28;20651;-63
2021/11/26 05:17:48;;;;;;;46.03;27.03;;;;;;;;;;2068575;28;20170;-62
2021/11/26 05:18:49;;;;;;;55.13;26.67;;;;;;;;;;2065638;28;20735;-62
2021/11/26 05:19:49;;;;;;;41.00;23.93;;;;;;;;;;2068230;28;20174;-66
2021/11/26 05:20:51;;;;;;;48.20;25.47;;;;;;;;;;2066881;28;20166;-64
2021/11/26 05:21:51;;;;;;;48.70;27.87;;;;;;;;;;2067740;28;20223;-63
2021/11/26 05:22:52;;;;;;;45.83;23.83;;;;;;;;;;2067256;28;20162;-61
2021/11/26 05:23:53;;;;;;;46.37;25.97;;;;;;;;;;2065805;28;20590;-60
2021/11/26 05:24:54;;;;;;;46.20;26.33;;;;;;;;;;2063101;28;20193;-62
2021/11/26 05:25:54;;;;;;;42.73;24.53;;;;;;;;;;2067009;28;20680;-63
2021/11/26 05:26:54;;;;;;;47.53;24.17;;;;;;;;;;2065875;28;20198;-63
2021/11/26 05:27:55;;;;;;;39.17;25.40;;;;;;;;;;2067199;28;20630;-63
2021/11/26 05:28:55;;;;;;;41.77;23.80;;;;;;;;;;2065337;28;20200;-61
2021/11/26 05:29:55;;;;;;;42.23;23.40;;;;;;;;;;2062238;28;20202;-63
2021/11/26 05:30:56;;;;;;;43.40;25.07;;;;;;;;;;2065874;28;20722;-64
2021/11/26 05:31:56;;;;;;;41.00;25.77;;;;;;;;;;2067062;28;20264;-63
2021/11/26 05:32:57;;;;;;;38.63;22.70;;;;;;;;;;2065368;28;20169;-63
2021/11/26 05:33:57;;;;;;;41.03;23.80;;;;;;;;;;2062112;28;20317;-62
2021/11/26 05:34:57;;;;;;;39.50;24.07;;;;;;;;;;2063708;28;20177;-64
2021/11/26 05:35:57;;;;;;;42.57;23.33;;;;;;;;;;2060711;28;20174;-64
2021/11/26 05:36:58;;;;;;;36.13;23.63;;;;;;;;;;2063825;28;20970;-64
2021/11/26 05:37:58;;;;;;;38.07;24.53;;;;;;;;;;2066658;28;20177;-64
2021/11/26 05:38:59;;;;;;;41.83;24.30;;;;;;;;;;2064988;28;20202;-63
2021/11/26 05:39:59;;;;;;;43.67;24.60;;;;;;;;;;2061954;28;20250;-64
2021/11/26 05:40:59;;;;;;;38.40;23.07;;;;;;;;;;2066362;28;20182;-63
2021/11/26 05:42:00;;;;;;;39.00;23.60;;;;;;;;;;2066474;28;20201;-63
2021/11/26 05:43:00;;;;;;;40.27;23.87;;;;;;;;;;2067497;28;20248;-65
2021/11/26 05:44:00;;;;;;;36.80;22.97;;;;;;;;;;2073051;28;20594;-63
2021/11/26 05:45:02;;;;;;;44.63;23.80;;;;;;;;;;2070873;28;20176;-64
2021/11/26 05:46:02;;;;;;;40.33;24.93;;;;;;;;;;2065879;28;20209;-64
2021/11/26 05:47:02;;;;;;;44.50;23.90;;;;;;;;;;2067990;28;20172;-62
2021/11/26 05:48:03;;;;;;;41.17;25.07;;;;;;;;;;2073045;28;20180;-64
2021/11/26 05:49:03;;;;;;;41.53;24.50;;;;;;;;;;2070665;28;20267;-65
2021/11/26 05:50:06;;;;;;;45.03;25.53;;;;;;;;;;2066105;28;20164;-68
2021/11/26 05:51:06;;;;;;;47.37;25.80;;;;;;;;;;2065950;28;20169;-64
2021/11/26 05:52:07;;;;;;;34.33;22.37;;;;;;;;;;2060886;28;20237;-64
2021/11/26 05:53:07;;;;;;;37.33;23.47;;;;;;;;;;2065565;28;20309;-64
2021/11/26 05:54:07;;;;;;;34.83;22.67;;;;;;;;;;2065598;28;20170;-65
2021/11/26 05:55:09;;;;;;;39.67;23.63;;;;;;;;;;2065901;28;20181;-62